Clarksville, AR

4:55 PM CDT on August 25, 2016 (GMT -0500)
The GRAPHIC(West Main) | | Change Station

Elev 410 ft 35.47 °N, 93.50 °W | Updated 1 second ago

Mostly Cloudy
Mostly Cloudy
74.1 °F
Feels Like 76 °F
N
4.0
Wind Variable Wind from SE
Gusts 5.4 mph

Today
High -- | Low -- °F
--% Chance of Precip.
Yesterday
High -- | Low -- °F
Precip. -- in
Pressure 30.01 in
Visibility 10.0 miles
Clouds Scattered Clouds 5500 ft
Scattered Clouds 7000 ft
Mostly Cloudy 10000 ft
Heat Index 76 °F
Dew Point 65 °F
Humidity 73%
Rainfall 0.00 in
Snow Depth Not available.
6:41 AM 7:49 PM
Last Quarter, 41% visible
METAR KRUE 252153Z AUTO 00000KT 10SM SCT055 SCT070 BKN100 25/23 A3003 RMK AO2 LTG DSNT SW-NW RAB29E45 SLP163 P0001 T02500233
Pressure 30.01 in
Visibility 10.0 miles
Clouds Scattered Clouds 5500 ft
Scattered Clouds 7000 ft
Mostly Cloudy 10000 ft
Heat Index 76 °F
Dew Point 65 °F
Humidity 73%
Rainfall 0.00 in
Snow Depth Not available.
6:41 AM 7:49 PM
Last Quarter, 41% visible
METAR KRUE 252153Z AUTO 00000KT 10SM SCT055 SCT070 BKN100 25/23 A3003 RMK AO2 LTG DSNT SW-NW RAB29E45 SLP163 P0001 T02500233
A tropical disturbance pushing toward the Bahamas, is expected to develop into a tropical depression or storm, and will likely target Florida and the Gulf Coast this weekend into next week.

Right now, the disturbance remains a broad area of low pressure pushing through the Dominican Republic and Haiti, headed toward the southeast Bahamas. Rainfall totals over 3 inches (with locally higher amounts) are expected in HispaƱiola, particularly over elevated terrain.

10-Day Weather Forecast

Almanac

Astronomy

Aug. 25, 2016 Rise Set
Actual Time
Civil Twilight
Nautical Twilight
Astronomical Twilight
Moon
Length of Visible Light
Length of Day
Tomorrow will be .
, % of the Moon is Illuminated

Today's Extremes

State Highs State Lows

Community

WunderPhotos

Upload Photos

1,934,947 photos uploaded!

WunderBlog® & News

Nearby

Air Quality

  Air Quality AQ Index Pollutant
Not available.

Snow Depth

Station Depth Elevation

Earthquake Activity

City Distance Mag. Time & Date
Minimum magnitude displayed is 2.5.

Coastal Water Temperatures

Place Temperature

Stations

Nearby Weather Stations

Station Location Temp. Windchill Dew Point Humidity Wind Precip. Elev Updated Type
                   

Watches & Warnings

There are currently no watches in effect.